Time;durP1;ratioP1;P1;durP2;ratioP2;P2;SDS_P1;SDS_P2;PMS_P1;PMS_P2;Temp;Humidity;BMP_temperature;BMP_pressure;BME280_temperature;BME280_humidity;BME280_pressure;Samples;Min_cycle;Max_cycle;Signal;HPM_P1;HPM_P2
2021/08/21 00:00:50;;;;;;;12.45;9.80;;;18.80;99.90;;;;;;5070149;28;20024;-76
2021/08/21 00:03:15;;;;;;;11.63;8.52;;;18.80;99.90;;;;;;5067948;28;20039;-77
2021/08/21 00:05:41;;;;;;;14.07;8.55;;;18.80;99.90;;;;;;5069804;28;20021;-76
2021/08/21 00:08:07;;;;;;;11.13;8.35;;;18.80;99.90;;;;;;5069841;28;20029;-76
2021/08/21 00:10:34;;;;;;;10.98;8.25;;;18.70;99.90;;;;;;5069629;28;20028;-75
2021/08/21 00:13:00;;;;;;;11.45;8.52;;;18.60;99.90;;;;;;5072567;28;20036;-73
2021/08/21 00:15:26;;;;;;;12.02;8.88;;;18.70;99.90;;;;;;5054866;28;20535;-72
2021/08/21 00:17:53;;;;;;;9.77;8.45;;;18.60;99.90;;;;;;5066795;28;20049;-72
2021/08/21 00:20:19;;;;;;;11.18;8.57;;;18.60;99.90;;;;;;5070111;28;20496;-72
2021/08/21 00:22:45;;;;;;;13.13;9.18;;;18.60;99.90;;;;;;5064375;28;20052;-71
2021/08/21 00:25:12;;;;;;;15.20;9.40;;;18.60;99.90;;;;;;5063431;28;20029;-72
2021/08/21 00:27:38;;;;;;;10.07;7.68;;;18.50;99.90;;;;;;5046653;28;20081;-72
2021/08/21 00:30:04;;;;;;;11.93;8.05;;;18.50;99.90;;;;;;5069894;28;20021;-72
2021/08/21 00:32:31;;;;;;;11.90;8.48;;;18.40;99.90;;;;;;5071536;28;20025;-72
2021/08/21 00:34:57;;;;;;;10.73;8.73;;;18.40;99.90;;;;;;5061716;28;20024;-72
2021/08/21 00:37:23;;;;;;;11.32;8.60;;;18.40;99.90;;;;;;5064013;28;20054;-73
2021/08/21 00:39:49;;;;;;;12.55;8.85;;;18.30;99.90;;;;;;5070519;28;20392;-73
2021/08/21 00:42:14;;;;;;;16.98;10.07;;;18.40;99.90;;;;;;5064788;28;20029;-72
2021/08/21 00:44:40;;;;;;;18.48;10.65;;;18.40;99.90;;;;;;5066669;28;20021;-72
2021/08/21 00:47:13;;;;;;;14.40;9.70;;;18.30;99.90;;;;;;5066820;28;20180;-72
2021/08/21 00:49:41;;;;;;;15.60;9.90;;;18.20;99.90;;;;;;5068689;28;20024;-76
2021/08/21 00:52:11;;;;;;;9.60;8.57;;;18.30;99.90;;;;;;5066300;28;20216;-72
2021/08/21 00:54:39;;;;;;;11.52;9.02;;;18.30;99.90;;;;;;5065284;28;20478;-72
2021/08/21 00:57:04;;;;;;;15.05;9.07;;;18.30;99.90;;;;;;5052568;28;20075;-72
2021/08/21 00:59:36;;;;;;;12.63;9.32;;;18.30;99.90;;;;;;5066959;28;20017;-74
2021/08/21 01:02:02;;;;;;;12.02;9.05;;;18.30;99.90;;;;;;5065851;28;20385;-71
2021/08/21 01:04:33;;;;;;;9.77;8.77;;;18.30;99.90;;;;;;5063675;28;20064;-71
2021/08/21 01:07:09;;;;;;;10.75;9.27;;;18.30;99.90;;;;;;5062919;28;20373;-73
2021/08/21 01:09:36;;;;;;;18.70;9.93;;;18.30;99.90;;;;;;5070349;28;20060;-72
2021/08/21 01:12:05;;;;;;;13.18;10.05;;;18.20;99.90;;;;;;5071990;28;20044;-73
2021/08/21 01:14:31;;;;;;;13.15;9.98;;;18.20;99.90;;;;;;5052242;28;20035;-74
2021/08/21 01:16:57;;;;;;;12.23;9.35;;;18.20;99.90;;;;;;5064763;28;20332;-72
2021/08/21 01:19:24;;;;;;;16.65;9.32;;;18.20;99.90;;;;;;5062968;28;20563;-72
2021/08/21 01:21:50;;;;;;;14.60;8.77;;;18.10;99.90;;;;;;5068330;28;20078;-73
2021/08/21 01:24:16;;;;;;;16.17;9.88;;;18.20;99.90;;;;;;5068788;28;20129;-71
2021/08/21 01:27:24;;;;;;;16.30;9.38;;;18.10;99.90;;;;;;5050024;28;20041;-74
2021/08/21 01:29:51;;;;;;;12.07;7.85;;;18.10;99.90;;;;;;5045758;28;20037;-75
2021/08/21 01:32:18;;;;;;;14.77;8.75;;;18.00;99.90;;;;;;5070195;28;20040;-73
2021/08/21 01:34:44;;;;;;;11.80;7.57;;;18.10;99.90;;;;;;5065243;28;20021;-72
2021/08/21 01:37:10;;;;;;;13.98;7.95;;;18.10;99.90;;;;;;5044691;28;20086;-73
2021/08/21 01:39:36;;;;;;;10.65;8.20;;;18.00;99.90;;;;;;5068898;28;20029;-72
2021/08/21 01:42:02;;;;;;;13.98;7.60;;;18.00;99.90;;;;;;5073172;28;20487;-72
2021/08/21 01:44:28;;;;;;;17.63;8.90;;;17.90;99.90;;;;;;5064171;28;20029;-72
2021/08/21 01:46:53;;;;;;;13.98;11.20;;;18.00;99.90;;;;;;5065063;28;20507;-72
2021/08/21 01:49:22;;;;;;;10.85;8.35;;;18.00;99.90;;;;;;5068662;28;20036;-72
2021/08/21 01:51:49;;;;;;;13.75;10.00;;;17.90;99.90;;;;;;5070096;28;20059;-72
2021/08/21 01:54:17;;;;;;;13.50;10.90;;;17.90;99.90;;;;;;5062301;28;20067;-71
2021/08/21 01:56:48;;;;;;;20.30;11.30;;;17.90;99.90;;;;;;5067600;28;20157;-73
2021/08/21 01:59:24;;;;;;;12.45;9.75;;;17.90;99.90;;;;;;5059355;28;20021;-72
2021/08/21 02:01:51;;;;;;;15.88;10.73;;;17.90;99.90;;;;;;5063344;28;20039;-72
2021/08/21 02:04:18;;;;;;;13.95;8.95;;;17.90;99.90;;;;;;5069633;28;20104;-73
2021/08/21 02:06:43;;;;;;;15.88;10.55;;;17.90;99.90;;;;;;5062651;28;20074;-72
2021/08/21 02:09:11;;;;;;;11.43;9.25;;;17.80;99.90;;;;;;5069399;28;20028;-72
2021/08/21 02:11:36;;;;;;;11.45;8.73;;;17.80;99.90;;;;;;5068920;28;20581;-72
2021/08/21 02:14:02;;;;;;;14.30;9.77;;;17.80;99.90;;;;;;5069221;28;20510;-73
2021/08/21 02:16:28;;;;;;;14.18;10.27;;;17.70;99.90;;;;;;5068112;28;20420;-73
2021/08/21 02:18:54;;;;;;;16.30;10.20;;;17.70;99.90;;;;;;5065292;28;20497;-73
2021/08/21 02:21:20;;;;;;;13.55;11.30;;;17.70;99.90;;;;;;5063913;28;20085;-71
2021/08/21 02:23:46;;;;;;;16.02;10.98;;;17.80;99.90;;;;;;5065349;28;20115;-73
2021/08/21 02:26:12;;;;;;;17.58;12.18;;;17.70;99.90;;;;;;5063080;28;20071;-72
2021/08/21 02:28:38;;;;;;;19.58;13.23;;;17.70;99.90;;;;;;5063922;28;20464;-73
2021/08/21 02:31:03;;;;;;;19.00;12.30;;;17.70;99.90;;;;;;5061413;28;20393;-72
2021/08/21 02:33:29;;;;;;;17.55;11.35;;;17.60;99.90;;;;;;5071217;28;20035;-72
2021/08/21 02:35:55;;;;;;;13.88;11.73;;;17.60;99.90;;;;;;5064152;28;20025;-72
2021/08/21 02:38:22;;;;;;;17.88;12.88;;;17.60;99.90;;;;;;5061376;28;20044;-72
2021/08/21 02:40:48;;;;;;;15.35;12.27;;;17.60;99.90;;;;;;5063669;28;20025;-72
2021/08/21 02:43:14;;;;;;;15.52;11.20;;;17.60;99.90;;;;;;5065918;28;20028;-75
2021/08/21 02:45:40;;;;;;;18.98;12.43;;;17.60;99.90;;;;;;5062547;28;20083;-72
2021/08/21 02:48:06;;;;;;;23.30;14.25;;;17.60;99.90;;;;;;5062287;28;20092;-72
2021/08/21 02:50:31;;;;;;;21.27;13.77;;;17.60;99.90;;;;;;5068311;28;20024;-72
2021/08/21 02:52:57;;;;;;;19.00;13.95;;;17.50;99.90;;;;;;5063705;28;20082;-73
2021/08/21 02:55:23;;;;;;;17.60;13.20;;;17.50;99.90;;;;;;5065725;28;20056;-72
2021/08/21 02:57:48;;;;;;;22.00;13.50;;;17.50;99.90;;;;;;5053834;28;20027;-72
2021/08/21 03:00:14;;;;;;;15.77;12.60;;;17.50;99.90;;;;;;5057770;28;20055;-73
2021/08/21 03:02:41;;;;;;;16.70;13.07;;;17.50;99.90;;;;;;5063611;28;20033;-72
2021/08/21 03:05:07;;;;;;;16.33;11.70;;;17.40;99.90;;;;;;5063167;28;20025;-72
2021/08/21 03:07:32;;;;;;;17.50;12.68;;;17.50;99.90;;;;;;5063130;28;20117;-73
2021/08/21 03:09:58;;;;;;;17.17;11.82;;;17.40;99.90;;;;;;5064032;28;20111;-72
2021/08/21 03:12:24;;;;;;;16.73;12.68;;;17.40;99.90;;;;;;5060495;28;20041;-72
2021/08/21 03:14:50;;;;;;;14.80;11.63;;;17.40;99.90;;;;;;5062893;28;20111;-72
2021/08/21 03:17:16;;;;;;;14.05;11.18;;;17.30;99.90;;;;;;5064729;28;20025;-72
2021/08/21 03:19:42;;;;;;;15.82;10.23;;;17.40;99.90;;;;;;5063796;28;20039;-72
2021/08/21 03:22:08;;;;;;;16.10;9.85;;;17.40;99.90;;;;;;5061187;28;20466;-72
2021/08/21 03:24:34;;;;;;;15.18;10.80;;;17.40;99.90;;;;;;5067097;28;20037;-71
2021/08/21 03:27:00;;;;;;;15.23;10.68;;;17.40;99.90;;;;;;5068496;28;20028;-72
2021/08/21 03:29:25;;;;;;;15.63;9.88;;;17.40;99.90;;;;;;5064787;28;20113;-72
2021/08/21 03:31:51;;;;;;;14.65;9.38;;;17.40;99.90;;;;;;5063982;28;20485;-71
2021/08/21 03:34:17;;;;;;;13.02;8.57;;;17.30;99.90;;;;;;5065324;28;20070;-72
2021/08/21 03:36:42;;;;;;;16.70;9.80;;;17.30;99.90;;;;;;5062488;28;20024;-78
2021/08/21 03:39:08;;;;;;;14.15;10.25;;;17.30;99.90;;;;;;5067151;28;20016;-77
2021/08/21 03:41:33;;;;;;;15.05;10.27;;;17.30;99.90;;;;;;5063497;28;20036;-72
2021/08/21 03:43:59;;;;;;;18.67;11.05;;;17.20;99.90;;;;;;5066333;28;20018;-72
2021/08/21 03:46:25;;;;;;;22.90;12.18;;;17.20;99.90;;;;;;5068715;28;20067;-73
2021/08/21 03:48:50;;;;;;;16.88;11.05;;;17.20;99.90;;;;;;5063844;28;20028;-72
2021/08/21 03:51:16;;;;;;;17.30;11.23;;;17.20;99.90;;;;;;5053802;28;20033;-72
2021/08/21 03:53:41;;;;;;;15.82;11.00;;;17.20;99.90;;;;;;5062071;28;20033;-72
2021/08/21 03:56:07;;;;;;;16.48;11.30;;;17.20;99.90;;;;;;5066476;28;20090;-72
2021/08/21 03:58:33;;;;;;;16.92;11.07;;;17.20;99.90;;;;;;5055208;28;20111;-73
2021/08/21 04:00:58;;;;;;;18.27;11.85;;;17.20;99.90;;;;;;5062826;28;20388;-73
2021/08/21 04:03:24;;;;;;;19.42;13.10;;;17.20;99.90;;;;;;5070400;28;20062;-73
2021/08/21 04:05:49;;;;;;;18.08;13.07;;;17.20;99.90;;;;;;5056933;28;20119;-72
2021/08/21 04:08:15;;;;;;;16.85;11.95;;;17.20;99.90;;;;;;5063247;28;20029;-72
2021/08/21 04:10:41;;;;;;;17.70;12.85;;;17.20;99.90;;;;;;5065671;28;20025;-72
2021/08/21 04:13:07;;;;;;;18.85;12.80;;;17.20;99.90;;;;;;5072497;28;20031;-72
2021/08/21 04:15:33;;;;;;;17.05;12.70;;;17.20;99.90;;;;;;5070968;28;20029;-72
2021/08/21 04:17:58;;;;;;;22.83;14.18;;;17.20;99.90;;;;;;5068802;28;20039;-72
2021/08/21 04:20:24;;;;;;;20.83;14.45;;;17.20;99.90;;;;;;5056398;28;20511;-73
2021/08/21 04:22:50;;;;;;;18.05;13.38;;;17.20;99.90;;;;;;5067122;28;20567;-73
2021/08/21 04:25:15;;;;;;;15.50;10.13;;;17.10;99.90;;;;;;5062611;28;20490;-73
2021/08/21 04:27:41;;;;;;;13.23;10.27;;;17.10;99.90;;;;;;5068184;28;20025;-73
2021/08/21 04:30:07;;;;;;;13.95;9.77;;;17.10;99.90;;;;;;5068913;28;20036;-73
2021/08/21 04:32:33;;;;;;;15.52;10.20;;;17.10;99.90;;;;;;5070086;28;20070;-72
2021/08/21 04:34:58;;;;;;;19.30;11.63;;;17.20;99.90;;;;;;5070622;28;20041;-72
2021/08/21 04:37:24;;;;;;;19.10;12.13;;;17.10;99.90;;;;;;5068983;28;20037;-73
2021/08/21 04:39:50;;;;;;;15.70;11.20;;;17.20;99.90;;;;;;5070063;28;20375;-72
2021/08/21 04:42:15;;;;;;;18.98;11.63;;;17.10;99.90;;;;;;5063307;28;20036;-73
2021/08/21 04:44:41;;;;;;;17.85;11.35;;;17.10;99.90;;;;;;5067996;28;20381;-72
2021/08/21 04:47:08;;;;;;;17.65;12.45;;;17.20;99.90;;;;;;5063044;28;20025;-72
2021/08/21 04:49:33;;;;;;;17.15;11.85;;;17.10;99.90;;;;;;5062211;28;20382;-72
2021/08/21 04:51:59;;;;;;;22.25;12.02;;;17.20;99.90;;;;;;5068956;28;20033;-72
2021/08/21 04:54:25;;;;;;;19.95;11.05;;;17.10;99.90;;;;;;5061508;28;20029;-72
2021/08/21 04:56:50;;;;;;;17.10;12.02;;;17.10;99.90;;;;;;5062805;28;20040;-72
2021/08/21 04:59:16;;;;;;;16.73;13.18;;;17.10;99.90;;;;;;5044227;28;20467;-73
2021/08/21 05:01:42;;;;;;;20.20;13.95;;;17.10;99.90;;;;;;5063923;28;20032;-72
2021/08/21 05:04:07;;;;;;;19.67;15.07;;;17.10;99.90;;;;;;5061717;28;20024;-72
2021/08/21 05:06:33;;;;;;;18.77;14.40;;;17.10;99.90;;;;;;5067566;28;20060;-72
2021/08/21 05:08:59;;;;;;;19.70;13.13;;;17.10;99.90;;;;;;5063141;28;20025;-72
2021/08/21 05:11:24;;;;;;;17.52;12.68;;;17.10;99.90;;;;;;5062591;28;20043;-72
2021/08/21 05:13:50;;;;;;;17.20;12.32;;;17.10;99.90;;;;;;5050194;28;20021;-73
2021/08/21 05:16:16;;;;;;;19.40;12.00;;;17.10;99.90;;;;;;5065329;28;20108;-73
2021/08/21 05:18:47;;;;;;;19.85;12.43;;;17.00;99.90;;;;;;5063261;28;20027;-72
2021/08/21 05:21:24;;;;;;;15.30;11.32;;;17.00;99.90;;;;;;5062611;28;20473;-72
2021/08/21 05:23:49;;;;;;;17.75;10.90;;;17.00;99.90;;;;;;5068424;28;20039;-73
2021/08/21 05:26:15;;;;;;;15.10;11.18;;;17.10;99.90;;;;;;5063863;28;20400;-73
2021/08/21 05:28:41;;;;;;;16.27;10.85;;;17.00;99.90;;;;;;5063413;28;20035;-72
2021/08/21 05:31:06;;;;;;;17.85;11.77;;;17.00;99.90;;;;;;5063800;28;20093;-72
2021/08/21 05:33:33;;;;;;;14.23;11.13;;;17.00;99.90;;;;;;5062689;28;20055;-72
2021/08/21 05:35:58;;;;;;;19.08;11.55;;;17.00;99.90;;;;;;5063633;28;20035;-72
2021/08/21 05:38:24;;;;;;;15.88;11.98;;;17.10;99.90;;;;;;5068602;28;20419;-72
2021/08/21 05:40:50;;;;;;;21.58;14.13;;;17.10;99.90;;;;;;5066907;28;20025;-71
2021/08/21 05:43:16;;;;;;;18.30;12.77;;;17.10;99.90;;;;;;5062310;28;20032;-73
2021/08/21 05:45:41;;;;;;;17.38;12.07;;;17.10;99.90;;;;;;5062316;28;20078;-73
2021/08/21 05:48:07;;;;;;;20.65;14.13;;;17.10;99.90;;;;;;5071328;28;20583;-73
2021/08/21 05:50:33;;;;;;;21.00;15.75;;;17.10;99.90;;;;;;5062068;28;20028;-72
2021/08/21 05:52:58;;;;;;;18.63;12.73;;;17.10;99.90;;;;;;5049568;28;20032;-73
2021/08/21 05:55:24;;;;;;;17.58;12.65;;;17.20;99.90;;;;;;5050954;28;20033;-73
2021/08/21 05:57:50;;;;;;;15.07;12.13;;;17.20;99.90;;;;;;5051954;28;20113;-72
2021/08/21 06:00:16;;;;;;;19.35;13.45;;;17.30;99.90;;;;;;5063812;28;20062;-73
2021/08/21 06:02:42;;;;;;;18.98;14.10;;;17.40;99.90;;;;;;5061811;28;20067;-72
2021/08/21 06:05:11;;;;;;;16.63;12.65;;;17.40;99.90;;;;;;5060045;28;20186;-73
2021/08/21 06:07:37;;;;;;;22.45;15.88;;;17.50;99.90;;;;;;5067533;28;20068;-73
2021/08/21 06:10:04;;;;;;;23.40;18.05;;;17.50;99.90;;;;;;5065204;28;20025;-72
2021/08/21 06:12:30;;;;;;;19.60;15.57;;;17.50;99.90;;;;;;5063979;28;20037;-72
2021/08/21 06:14:55;;;;;;;32.17;22.33;;;17.60;99.90;;;;;;5066648;28;20036;-78
2021/08/21 06:17:21;;;;;;;31.00;22.67;;;17.50;99.90;;;;;;5060060;28;20036;-76
2021/08/21 06:19:47;;;;;;;33.45;22.13;;;17.50;99.90;;;;;;5062756;28;20025;-77
2021/08/21 06:22:12;;;;;;;27.67;19.40;;;17.50;99.90;;;;;;5068748;28;20111;-77
2021/08/21 06:24:40;;;;;;;24.38;15.98;;;17.60;99.90;;;;;;5052713;28;20021;-72
2021/08/21 06:27:06;;;;;;;19.25;14.57;;;17.60;99.90;;;;;;5067266;28;20048;-72
2021/08/21 06:29:35;;;;;;;20.77;15.85;;;17.70;99.90;;;;;;5066069;28;20493;-72
2021/08/21 06:32:04;;;;;;;24.92;16.92;;;17.70;99.90;;;;;;5067963;28;20085;-72
2021/08/21 06:34:30;;;;;;;21.30;18.25;;;17.90;99.90;;;;;;5061967;28;20025;-72
2021/08/21 06:36:57;;;;;;;25.70;18.65;;;17.90;99.90;;;;;;5063097;28;20039;-72
2021/08/21 06:39:23;;;;;;;21.98;17.63;;;17.90;99.90;;;;;;5071304;28;20491;-72
2021/08/21 06:41:49;;;;;;;22.30;18.00;;;18.00;99.90;;;;;;5065587;28;20033;-72
2021/08/21 06:44:15;;;;;;;19.83;15.05;;;18.00;99.90;;;;;;5060640;28;22112;-72
2021/08/21 06:46:41;;;;;;;27.48;18.55;;;18.00;99.90;;;;;;5066203;28;20029;-72
2021/08/21 06:49:06;;;;;;;21.83;15.90;;;18.10;99.90;;;;;;5067966;28;20091;-72
2021/08/21 06:51:32;;;;;;;23.05;17.17;;;18.20;99.90;;;;;;5061177;28;20040;-72
2021/08/21 06:53:57;;;;;;;18.50;15.20;;;18.20;99.90;;;;;;5061445;28;20101;-72
2021/08/21 06:56:23;;;;;;;22.00;14.82;;;18.20;99.90;;;;;;5059972;28;20064;-71
2021/08/21 06:58:49;;;;;;;20.73;13.82;;;18.30;99.90;;;;;;5064372;28;20067;-71
2021/08/21 07:01:14;;;;;;;22.98;16.92;;;18.30;99.90;;;;;;5068939;28;20029;-71
2021/08/21 07:03:40;;;;;;;19.42;14.95;;;18.40;99.90;;;;;;5062857;28;20079;-72
2021/08/21 07:06:06;;;;;;;22.08;15.70;;;18.40;99.90;;;;;;5065604;28;20422;-73
2021/08/21 07:08:32;;;;;;;20.40;15.80;;;18.40;99.90;;;;;;5058914;28;20449;-71
2021/08/21 07:10:58;;;;;;;21.42;15.57;;;18.50;99.90;;;;;;5066623;28;20147;-72
2021/08/21 07:13:24;;;;;;;18.85;13.57;;;18.50;99.90;;;;;;5061521;28;20112;-72
2021/08/21 07:15:51;;;;;;;17.35;14.95;;;18.60;99.90;;;;;;5068840;28;20106;-73
2021/08/21 07:18:16;;;;;;;18.10;14.30;;;18.60;99.90;;;;;;5070504;28;20020;-72
2021/08/21 07:20:42;;;;;;;14.77;12.52;;;18.70;99.90;;;;;;5070996;28;20027;-72
2021/08/21 07:23:08;;;;;;;15.23;12.55;;;18.70;99.90;;;;;;5081601;28;20033;-71
2021/08/21 07:25:34;;;;;;;12.88;10.80;;;18.80;99.90;;;;;;5071980;28;20052;-72
2021/08/21 07:28:00;;;;;;;13.43;11.98;;;18.90;99.90;;;;;;5067468;28;20025;-73
2021/08/21 07:30:26;;;;;;;16.20;11.13;;;19.00;99.90;;;;;;5069689;28;20024;-72
2021/08/21 07:32:51;;;;;;;15.15;11.88;;;19.10;99.90;;;;;;5073235;28;20477;-72
2021/08/21 07:35:17;;;;;;;12.52;11.07;;;19.10;99.90;;;;;;5070421;28;20371;-72
2021/08/21 07:37:42;;;;;;;12.40;10.45;;;19.30;99.90;;;;;;5064253;28;20032;-74
2021/08/21 07:40:09;;;;;;;12.85;10.40;;;19.30;99.90;;;;;;5071102;28;20052;-75
2021/08/21 07:42:35;;;;;;;12.57;11.13;;;19.40;99.90;;;;;;5068817;28;20078;-73
2021/08/21 07:45:01;;;;;;;12.35;10.75;;;19.50;99.90;;;;;;5049390;28;20025;-72
2021/08/21 07:47:26;;;;;;;14.75;11.20;;;19.70;99.90;;;;;;5069287;28;20029;-71
2021/08/21 07:49:52;;;;;;;15.02;11.45;;;19.80;99.90;;;;;;5066474;28;20029;-73
2021/08/21 07:52:18;;;;;;;17.33;11.77;;;19.90;99.90;;;;;;5069215;28;20040;-72
2021/08/21 07:54:43;;;;;;;14.07;11.68;;;20.00;99.90;;;;;;5065017;28;20031;-73
2021/08/21 07:57:09;;;;;;;14.30;11.57;;;20.00;99.90;;;;;;5068048;28;20504;-73
2021/08/21 07:59:34;;;;;;;14.85;11.60;;;20.20;99.90;;;;;;5072839;28;20384;-73
2021/08/21 08:02:00;;;;;;;16.90;12.18;;;20.20;99.90;;;;;;5067485;28;20025;-73
2021/08/21 08:04:26;;;;;;;13.93;12.25;;;20.30;99.90;;;;;;5067258;28;20470;-73
2021/08/21 08:06:52;;;;;;;13.55;8.65;;;20.40;99.90;;;;;;5065309;28;20453;-74
2021/08/21 08:09:18;;;;;;;13.68;10.38;;;20.50;99.90;;;;;;5073002;28;20372;-71
2021/08/21 08:11:44;;;;;;;11.98;9.63;;;20.60;99.90;;;;;;5066796;28;20040;-77
2021/08/21 08:14:09;;;;;;;18.90;11.55;;;20.70;99.90;;;;;;5068999;28;20127;-77
2021/08/21 08:16:35;;;;;;;14.80;10.52;;;20.80;99.90;;;;;;5072279;28;20035;-75
2021/08/21 08:19:00;;;;;;;15.85;12.40;;;20.90;99.90;;;;;;5060222;28;20025;-78
2021/08/21 08:21:26;;;;;;;14.30;12.00;;;21.00;99.90;;;;;;5066818;28;20036;-78
2021/08/21 08:23:53;;;;;;;13.45;11.07;;;21.00;99.90;;;;;;5068120;28;20032;-74
2021/08/21 08:26:18;;;;;;;13.13;11.38;;;21.10;99.90;;;;;;5068305;28;20113;-74
2021/08/21 08:28:44;;;;;;;11.75;9.10;;;21.20;99.90;;;;;;5058021;28;20053;-74
2021/08/21 08:31:10;;;;;;;16.05;11.00;;;21.30;99.90;;;;;;5066189;28;20036;-77
2021/08/21 08:33:36;;;;;;;13.43;9.48;;;21.40;99.90;;;;;;5069882;28;20020;-77
2021/08/21 08:36:02;;;;;;;13.43;9.88;;;21.40;99.90;;;;;;5065939;28;20029;-77
2021/08/21 08:38:27;;;;;;;12.27;9.82;;;21.40;99.90;;;;;;5069277;28;20043;-77
2021/08/21 08:40:53;;;;;;;12.20;9.80;;;21.40;99.90;;;;;;5070910;28;22209;-77
2021/08/21 08:43:22;;;;;;;16.63;9.25;;;21.50;99.90;;;;;;5073007;28;20417;-78
2021/08/21 08:45:49;;;;;;;11.85;9.50;;;21.60;99.90;;;;;;5066904;28;20021;-78
2021/08/21 08:48:16;;;;;;;12.70;9.27;;;21.70;99.90;;;;;;5065304;28;20111;-78
2021/08/21 08:50:44;;;;;;;12.80;9.35;;;21.80;99.90;;;;;;5063822;28;20033;-77
2021/08/21 08:53:10;;;;;;;14.48;10.90;;;21.90;99.90;;;;;;5046288;28;20119;-78
2021/08/21 08:55:36;;;;;;;12.02;9.68;;;22.00;99.90;;;;;;5062921;28;20108;-77
2021/08/21 08:58:04;;;;;;;11.27;10.10;;;22.10;99.90;;;;;;5072598;28;20020;-77
2021/08/21 09:00:30;;;;;;;12.35;10.43;;;22.10;99.90;;;;;;5071905;28;20096;-77
2021/08/21 09:02:57;;;;;;;14.93;10.95;;;22.20;99.90;;;;;;5065154;28;20099;-77
2021/08/21 09:05:26;;;;;;;11.65;9.13;;;22.40;99.90;;;;;;5064004;28;20047;-77
2021/08/21 09:07:52;;;;;;;12.10;9.77;;;22.60;99.90;;;;;;5068318;28;20108;-77
2021/08/21 09:10:33;;;;;;;11.00;9.10;;;22.60;99.90;;;;;;5067949;28;20036;-76
2021/08/21 09:13:31;;;;;;;9.68;8.68;;;22.70;99.90;;;;;;5049951;28;20151;-79
2021/08/21 09:16:00;;;;;;;10.95;8.15;;;22.80;99.90;;;;;;5050356;28;20545;-78
2021/08/21 09:18:28;;;;;;;11.63;8.32;;;22.80;99.90;;;;;;5050532;28;20038;-78
2021/08/21 09:21:00;;;;;;;7.78;6.97;;;23.00;99.90;;;;;;5067767;28;20492;-77
2021/08/21 09:23:32;;;;;;;11.27;6.10;;;23.10;99.90;;;;;;5049796;28;20047;-78
2021/08/21 09:26:24;;;;;;;6.57;5.80;;;23.30;99.90;;;;;;5069099;28;20032;-78
2021/08/21 09:28:51;;;;;;;7.65;4.93;;;23.40;99.90;;;;;;5064393;28;20028;-78
2021/08/21 09:31:19;;;;;;;6.95;4.88;;;23.40;99.90;;;;;;5067650;28;20464;-77
2021/08/21 09:34:00;;;;;;;6.80;5.63;;;23.50;99.90;;;;;;5062316;28;20024;-78
2021/08/21 09:36:34;;;;;;;6.28;4.90;;;23.50;99.90;;;;;;5070424;28;20020;-79
2021/08/21 09:39:02;;;;;;;6.82;4.57;;;23.70;99.90;;;;;;5066783;28;20485;-79
2021/08/21 09:41:28;;;;;;;5.53;5.03;;;23.70;99.90;;;;;;5057939;28;20025;-78
2021/08/21 09:44:08;;;;;;;6.22;4.15;;;23.70;99.90;;;;;;5061734;28;20492;-79
2021/08/21 09:46:37;;;;;;;4.57;4.18;;;23.90;99.90;;;;;;5061424;28;20032;-78
2021/08/21 09:49:10;;;;;;;7.15;3.22;;;24.00;99.90;;;;;;5066525;28;20507;-78
2021/08/21 09:51:47;;;;;;;4.20;3.50;;;24.10;99.90;;;;;;5061094;28;20086;-79
2021/08/21 09:54:21;;;;;;;4.22;3.20;;;24.10;99.90;;;;;;5063488;28;20028;-80
2021/08/21 09:56:54;;;;;;;4.53;2.92;;;24.40;99.90;;;;;;5070562;28;20080;-79
2021/08/21 09:59:41;;;;;;;3.08;2.78;;;24.50;99.90;;;;;;5057172;28;20025;-75
2021/08/21 10:02:11;;;;;;;2.67;2.42;;;24.60;99.90;;;;;;5062031;28;20062;-79
2021/08/21 10:04:38;;;;;;;3.55;2.65;;;24.60;99.90;;;;;;5044635;28;20032;-78
2021/08/21 10:07:05;;;;;;;3.28;2.30;;;24.80;99.90;;;;;;5061681;28;20052;-78
2021/08/21 10:09:37;;;;;;;2.15;2.00;;;24.90;99.90;;;;;;5069031;28;20491;-81
2021/08/21 10:12:05;;;;;;;2.13;1.90;;;25.00;99.90;;;;;;5067763;28;20439;-80
2021/08/21 10:14:31;;;;;;;3.72;2.65;;;25.00;99.90;;;;;;5067934;28;20021;-80
2021/08/21 10:16:57;;;;;;;2.92;2.17;;;25.00;99.90;;;;;;5068302;28;20098;-73
2021/08/21 10:19:24;;;;;;;2.55;2.00;;;25.20;99.90;;;;;;5065864;28;20051;-78
2021/08/21 10:21:52;;;;;;;2.28;1.75;;;25.20;99.90;;;;;;5065406;28;20081;-78
2021/08/21 10:24:37;;;;;;;2.30;1.70;;;25.30;99.90;;;;;;5071382;28;20499;-76
2021/08/21 10:27:26;;;;;;;2.67;1.77;;;25.30;99.90;;;;;;5068607;28;20021;-80
2021/08/21 10:30:17;;;;;;;2.40;1.83;;;25.50;99.90;;;;;;5062655;28;20496;-80
2021/08/21 10:32:45;;;;;;;2.10;1.85;;;25.40;99.90;;;;;;5061384;28;20044;-80
2021/08/21 10:35:13;;;;;;;2.38;2.17;;;25.50;99.90;;;;;;5062960;28;20095;-79
2021/08/21 10:37:47;;;;;;;2.45;1.80;;;25.70;99.90;;;;;;5066808;28;20111;-80
2021/08/21 10:40:28;;;;;;;2.65;2.00;;;25.80;99.90;;;;;;5065728;28;20052;-81
2021/08/21 10:42:56;;;;;;;3.00;1.90;;;25.90;99.90;;;;;;5067198;28;20499;-79
2021/08/21 10:45:54;;;;;;;2.50;2.30;;;25.90;99.90;;;;;;5066441;28;20024;-81
2021/08/21 10:48:22;;;;;;;2.90;2.20;;;25.80;99.90;;;;;;5032830;28;20041;-79
2021/08/21 10:50:51;;;;;;;2.05;1.85;;;25.70;99.90;;;;;;5064522;28;20032;-80
2021/08/21 10:53:22;;;;;;;3.60;2.33;;;25.80;99.90;;;;;;5068724;28;20036;-79
2021/08/21 10:55:48;;;;;;;2.42;2.15;;;25.80;99.90;;;;;;5050601;28;20037;-81
2021/08/21 10:58:26;;;;;;;2.58;1.55;;;25.80;99.90;;;;;;5071001;28;20025;-83
2021/08/21 11:01:01;;;;;;;2.78;2.05;;;26.00;99.90;;;;;;5069073;28;20449;-80
2021/08/21 11:03:29;;;;;;;2.53;1.60;;;26.20;99.90;;;;;;5070104;28;20025;-79
2021/08/21 11:06:02;;;;;;;1.77;1.60;;;26.20;99.90;;;;;;5064431;28;20029;-81
2021/08/21 11:08:32;;;;;;;1.90;1.75;;;26.20;99.90;;;;;;5066433;28;20059;-79
2021/08/21 11:11:28;;;;;;;2.70;2.50;;;26.30;99.90;;;;;;5064326;28;20539;-78
2021/08/21 11:14:05;;;;;;;2.53;2.33;;;26.50;99.90;;;;;;5066611;28;20101;-81
2021/08/21 11:17:02;;;;;;;2.22;1.98;;;26.60;99.90;;;;;;5070881;28;20032;-81
2021/08/21 11:19:35;;;;;;;3.33;2.00;;;26.60;99.90;;;;;;5065357;28;20366;-78
2021/08/21 11:22:24;;;;;;;5.63;2.30;;;26.50;99.90;;;;;;5068091;28;20028;-79
2021/08/21 11:24:52;;;;;;;2.83;2.08;;;26.40;99.90;;;;;;5066794;28;20102;-80
2021/08/21 11:27:24;;;;;;;2.30;2.10;;;26.30;99.90;;;;;;5072567;28;20464;-81
2021/08/21 11:30:05;;;;;;;3.55;2.63;;;26.20;99.90;;;;;;5066262;28;20024;-79
2021/08/21 11:32:32;;;;;;;4.20;2.13;;;26.10;99.90;;;;;;5067623;28;20091;-78
2021/08/21 11:34:58;;;;;;;2.20;2.00;;;26.20;99.90;;;;;;5068389;28;20016;-78
2021/08/21 11:37:24;;;;;;;2.55;2.33;;;26.30;99.90;;;;;;5064202;28;20507;-81
2021/08/21 11:39:54;;;;;;;2.45;2.25;;;26.30;99.90;;;;;;5069459;28;20032;-81
2021/08/21 11:42:20;;;;;;;1.92;1.83;;;26.30;99.90;;;;;;5071185;28;20021;-79
2021/08/21 11:44:54;;;;;;;2.28;2.08;;;26.30;99.90;;;;;;5069147;28;20035;-79
2021/08/21 11:47:29;;;;;;;3.42;2.30;;;26.30;99.90;;;;;;5065926;28;20024;-79
2021/08/21 11:49:55;;;;;;;3.50;2.20;;;26.40;99.90;;;;;;5072486;28;20481;-80
2021/08/21 11:52:21;;;;;;;3.72;1.92;;;26.30;99.90;;;;;;5069046;28;20047;-79
2021/08/21 11:54:48;;;;;;;3.78;2.22;;;26.40;99.90;;;;;;5062844;28;20020;-81
2021/08/21 11:57:14;;;;;;;2.70;2.47;;;26.40;99.90;;;;;;5063373;28;20047;-82
2021/08/21 11:59:40;;;;;;;3.58;2.20;;;26.40;99.90;;;;;;5069896;28;20021;-81
2021/08/21 12:02:09;;;;;;;3.92;2.22;;;26.50;99.90;;;;;;5065270;28;20029;-80
2021/08/21 12:04:34;;;;;;;2.95;2.08;;;26.40;99.90;;;;;;5045076;28;20036;-81
2021/08/21 12:07:00;;;;;;;2.67;2.10;;;26.40;99.90;;;;;;5066063;28;20020;-81
2021/08/21 12:09:26;;;;;;;2.88;2.13;;;26.40;99.90;;;;;;5074012;28;20078;-80
2021/08/21 12:11:53;;;;;;;2.28;1.77;;;26.50;99.90;;;;;;5070270;28;20086;-76
2021/08/21 12:14:24;;;;;;;3.25;2.28;;;26.60;99.90;;;;;;5077271;28;20033;-80
2021/08/21 12:16:55;;;;;;;4.95;2.05;;;26.50;99.90;;;;;;5072326;28;20067;-80
2021/08/21 12:19:22;;;;;;;2.55;2.25;;;26.50;99.90;;;;;;5072941;28;20013;-79
2021/08/21 12:21:49;;;;;;;2.40;2.20;;;26.70;99.90;;;;;;5071850;28;20025;-81
2021/08/21 12:24:15;;;;;;;2.40;2.13;;;26.70;99.90;;;;;;5071529;28;20048;-78
2021/08/21 12:26:44;;;;;;;2.22;2.03;;;26.70;99.90;;;;;;5065085;28;20040;-80
2021/08/21 12:29:32;;;;;;;2.90;2.20;;;26.70;99.90;;;;;;5048328;28;20368;-78
2021/08/21 12:32:00;;;;;;;1.98;1.75;;;26.60;99.90;;;;;;5070368;28;20456;-78
2021/08/21 12:34:28;;;;;;;3.40;2.05;;;26.60;99.90;;;;;;5066452;28;20029;-77
2021/08/21 12:36:59;;;;;;;2.35;1.50;;;26.70;99.90;;;;;;5063394;28;20119;-76